sensor_id;sensor_type;location;lat;lon;timestamp;P1;durP1;ratioP1;P2;durP2;ratioP2
78382;SDS011;67668;52.294;4.692;2023-02-28T00:00:42;5.07;;;1.85;;
78382;SDS011;67668;52.294;4.692;2023-02-28T00:03:08;6.50;;;1.52;;
78382;SDS011;67668;52.294;4.692;2023-02-28T00:05:34;6.17;;;1.50;;
78382;SDS011;67668;52.294;4.692;2023-02-28T00:07:59;2.83;;;1.73;;
78382;SDS011;67668;52.294;4.692;2023-02-28T00:10:27;4.97;;;1.70;;
78382;SDS011;67668;52.294;4.692;2023-02-28T00:12:55;3.75;;;1.73;;
78382;SDS011;67668;52.294;4.692;2023-02-28T00:15:22;3.78;;;1.85;;
78382;SDS011;67668;52.294;4.692;2023-02-28T00:17:48;3.63;;;1.90;;
78382;SDS011;67668;52.294;4.692;2023-02-28T00:20:14;4.63;;;1.85;;
78382;SDS011;67668;52.294;4.692;2023-02-28T00:22:44;2.80;;;1.70;;
78382;SDS011;67668;52.294;4.692;2023-02-28T00:25:13;5.35;;;1.77;;
78382;SDS011;67668;52.294;4.692;2023-02-28T00:27:40;5.10;;;2.33;;
78382;SDS011;67668;52.294;4.692;2023-02-28T00:30:06;4.20;;;1.80;;
78382;SDS011;67668;52.294;4.692;2023-02-28T00:32:34;6.47;;;2.10;;
78382;SDS011;67668;52.294;4.692;2023-02-28T00:35:00;6.88;;;1.85;;
78382;SDS011;67668;52.294;4.692;2023-02-28T00:37:25;4.45;;;1.90;;
78382;SDS011;67668;52.294;4.692;2023-02-28T00:39:51;3.60;;;1.75;;
78382;SDS011;67668;52.294;4.692;2023-02-28T00:42:16;3.05;;;1.63;;
78382;SDS011;67668;52.294;4.692;2023-02-28T00:44:42;3.15;;;2.10;;
78382;SDS011;67668;52.294;4.692;2023-02-28T00:47:07;4.57;;;2.13;;
78382;SDS011;67668;52.294;4.692;2023-02-28T00:49:33;6.67;;;1.80;;
78382;SDS011;67668;52.294;4.692;2023-02-28T00:51:58;4.78;;;1.52;;
78382;SDS011;67668;52.294;4.692;2023-02-28T00:54:24;5.57;;;1.67;;
78382;SDS011;67668;52.294;4.692;2023-02-28T00:56:49;4.22;;;1.60;;
78382;SDS011;67668;52.294;4.692;2023-02-28T00:59:16;3.15;;;1.67;;
78382;SDS011;67668;52.294;4.692;2023-02-28T01:04:17;5.43;;;1.42;;
78382;SDS011;67668;52.294;4.692;2023-02-28T01:06:43;5.40;;;1.77;;
78382;SDS011;67668;52.294;4.692;2023-02-28T01:09:08;3.75;;;1.40;;
78382;SDS011;67668;52.294;4.692;2023-02-28T01:11:34;3.50;;;1.90;;
78382;SDS011;67668;52.294;4.692;2023-02-28T01:14:00;5.82;;;2.13;;
78382;SDS011;67668;52.294;4.692;2023-02-28T01:16:25;6.05;;;2.10;;
78382;SDS011;67668;52.294;4.692;2023-02-28T01:18:51;3.40;;;1.45;;
78382;SDS011;67668;52.294;4.692;2023-02-28T01:21:17;4.03;;;1.95;;
78382;SDS011;67668;52.294;4.692;2023-02-28T01:23:44;4.97;;;1.50;;
78382;SDS011;67668;52.294;4.692;2023-02-28T01:26:17;3.42;;;1.90;;
78382;SDS011;67668;52.294;4.692;2023-02-28T01:28:44;4.28;;;2.00;;
78382;SDS011;67668;52.294;4.692;2023-02-28T01:33:36;5.17;;;1.70;;
78382;SDS011;67668;52.294;4.692;2023-02-28T01:36:10;4.65;;;1.77;;
78382;SDS011;67668;52.294;4.692;2023-02-28T01:38:40;4.68;;;1.48;;
78382;SDS011;67668;52.294;4.692;2023-02-28T01:41:06;2.88;;;1.80;;
78382;SDS011;67668;52.294;4.692;2023-02-28T01:43:52;4.47;;;2.08;;
78382;SDS011;67668;52.294;4.692;2023-02-28T01:46:17;4.95;;;1.65;;
78382;SDS011;67668;52.294;4.692;2023-02-28T01:54:26;4.43;;;1.88;;
78382;SDS011;67668;52.294;4.692;2023-02-28T01:57:04;4.80;;;2.05;;
78382;SDS011;67668;52.294;4.692;2023-02-28T01:59:37;4.45;;;1.73;;
78382;SDS011;67668;52.294;4.692;2023-02-28T02:02:29;3.58;;;1.77;;
78382;SDS011;67668;52.294;4.692;2023-02-28T02:07:34;5.55;;;1.98;;
78382;SDS011;67668;52.294;4.692;2023-02-28T02:10:06;3.78;;;2.10;;
78382;SDS011;67668;52.294;4.692;2023-02-28T02:15:41;3.63;;;1.83;;
78382;SDS011;67668;52.294;4.692;2023-02-28T02:18:21;3.28;;;1.65;;
78382;SDS011;67668;52.294;4.692;2023-02-28T02:26:26;6.15;;;2.15;;
78382;SDS011;67668;52.294;4.692;2023-02-28T02:40:14;4.78;;;1.83;;
78382;SDS011;67668;52.294;4.692;2023-02-28T02:45:25;4.93;;;1.83;;
78382;SDS011;67668;52.294;4.692;2023-02-28T02:48:00;4.45;;;1.77;;
78382;SDS011;67668;52.294;4.692;2023-02-28T02:50:38;4.88;;;2.63;;
78382;SDS011;67668;52.294;4.692;2023-02-28T02:53:07;4.45;;;1.80;;
78382;SDS011;67668;52.294;4.692;2023-02-28T02:55:37;3.72;;;1.60;;
78382;SDS011;67668;52.294;4.692;2023-02-28T02:58:07;5.75;;;2.33;;
78382;SDS011;67668;52.294;4.692;2023-02-28T03:00:41;3.50;;;2.15;;
78382;SDS011;67668;52.294;4.692;2023-02-28T03:03:11;3.00;;;1.60;;
78382;SDS011;67668;52.294;4.692;2023-02-28T03:05:57;6.07;;;2.08;;
78382;SDS011;67668;52.294;4.692;2023-02-28T03:08:23;4.88;;;1.90;;
78382;SDS011;67668;52.294;4.692;2023-02-28T03:10:50;6.90;;;1.83;;
78382;SDS011;67668;52.294;4.692;2023-02-28T03:16:07;5.95;;;2.05;;
78382;SDS011;67668;52.294;4.692;2023-02-28T03:21:28;8.20;;;2.33;;
78382;SDS011;67668;52.294;4.692;2023-02-28T03:26:26;5.10;;;2.00;;
78382;SDS011;67668;52.294;4.692;2023-02-28T03:32:00;4.65;;;1.95;;
78382;SDS011;67668;52.294;4.692;2023-02-28T03:34:33;5.18;;;2.22;;
78382;SDS011;67668;52.294;4.692;2023-02-28T03:37:05;4.75;;;1.75;;
78382;SDS011;67668;52.294;4.692;2023-02-28T03:39:37;6.57;;;2.80;;
78382;SDS011;67668;52.294;4.692;2023-02-28T03:42:20;4.80;;;2.33;;
78382;SDS011;67668;52.294;4.692;2023-02-28T03:44:58;5.03;;;1.80;;
78382;SDS011;67668;52.294;4.692;2023-02-28T03:47:32;5.22;;;2.13;;
78382;SDS011;67668;52.294;4.692;2023-02-28T03:50:14;4.53;;;2.65;;
78382;SDS011;67668;52.294;4.692;2023-02-28T03:52:58;4.55;;;2.00;;
78382;SDS011;67668;52.294;4.692;2023-02-28T03:55:34;3.97;;;2.33;;
78382;SDS011;67668;52.294;4.692;2023-02-28T03:58:26;5.68;;;2.63;;
78382;SDS011;67668;52.294;4.692;2023-02-28T04:01:02;4.88;;;2.13;;
78382;SDS011;67668;52.294;4.692;2023-02-28T04:03:36;7.63;;;2.63;;
78382;SDS011;67668;52.294;4.692;2023-02-28T04:06:03;4.70;;;2.28;;
78382;SDS011;67668;52.294;4.692;2023-02-28T04:08:30;6.50;;;2.15;;
78382;SDS011;67668;52.294;4.692;2023-02-28T04:10:58;6.13;;;2.85;;
78382;SDS011;67668;52.294;4.692;2023-02-28T04:13:51;3.72;;;2.05;;
78382;SDS011;67668;52.294;4.692;2023-02-28T04:16:16;6.85;;;2.83;;
78382;SDS011;67668;52.294;4.692;2023-02-28T04:18:42;7.93;;;2.90;;
78382;SDS011;67668;52.294;4.692;2023-02-28T04:21:11;5.10;;;2.53;;
78382;SDS011;67668;52.294;4.692;2023-02-28T04:23:37;5.03;;;2.78;;
78382;SDS011;67668;52.294;4.692;2023-02-28T04:26:03;4.18;;;2.60;;
78382;SDS011;67668;52.294;4.692;2023-02-28T04:28:29;4.88;;;2.47;;
78382;SDS011;67668;52.294;4.692;2023-02-28T04:30:58;4.30;;;2.38;;
78382;SDS011;67668;52.294;4.692;2023-02-28T04:33:27;6.65;;;2.83;;
78382;SDS011;67668;52.294;4.692;2023-02-28T04:35:59;4.95;;;2.67;;
78382;SDS011;67668;52.294;4.692;2023-02-28T04:38:27;5.55;;;2.42;;
78382;SDS011;67668;52.294;4.692;2023-02-28T04:40:56;8.68;;;3.00;;
78382;SDS011;67668;52.294;4.692;2023-02-28T04:43:22;5.18;;;2.63;;
78382;SDS011;67668;52.294;4.692;2023-02-28T04:45:47;4.27;;;2.73;;
78382;SDS011;67668;52.294;4.692;2023-02-28T04:48:13;7.95;;;2.85;;
78382;SDS011;67668;52.294;4.692;2023-02-28T04:50:38;5.95;;;2.65;;
78382;SDS011;67668;52.294;4.692;2023-02-28T04:53:04;6.97;;;2.58;;
78382;SDS011;67668;52.294;4.692;2023-02-28T04:55:29;7.60;;;2.90;;
78382;SDS011;67668;52.294;4.692;2023-02-28T04:57:54;5.17;;;2.53;;
78382;SDS011;67668;52.294;4.692;2023-02-28T05:00:20;4.00;;;1.95;;
78382;SDS011;67668;52.294;4.692;2023-02-28T05:02:45;4.93;;;2.28;;
78382;SDS011;67668;52.294;4.692;2023-02-28T05:05:11;8.25;;;2.03;;
78382;SDS011;67668;52.294;4.692;2023-02-28T05:07:43;5.20;;;2.40;;
78382;SDS011;67668;52.294;4.692;2023-02-28T05:10:09;3.65;;;2.00;;
78382;SDS011;67668;52.294;4.692;2023-02-28T05:15:00;5.33;;;2.57;;
78382;SDS011;67668;52.294;4.692;2023-02-28T05:17:27;3.33;;;2.08;;
78382;SDS011;67668;52.294;4.692;2023-02-28T05:19:52;4.20;;;2.25;;
78382;SDS011;67668;52.294;4.692;2023-02-28T05:22:18;5.27;;;2.33;;
78382;SDS011;67668;52.294;4.692;2023-02-28T05:24:43;4.60;;;2.47;;
78382;SDS011;67668;52.294;4.692;2023-02-28T05:27:09;4.28;;;2.20;;
78382;SDS011;67668;52.294;4.692;2023-02-28T05:29:34;3.67;;;2.10;;
78382;SDS011;67668;52.294;4.692;2023-02-28T05:32:07;4.22;;;2.90;;
78382;SDS011;67668;52.294;4.692;2023-02-28T05:34:34;5.40;;;2.88;;
78382;SDS011;67668;52.294;4.692;2023-02-28T05:37:00;7.47;;;2.80;;
78382;SDS011;67668;52.294;4.692;2023-02-28T05:39:26;5.38;;;2.78;;
78382;SDS011;67668;52.294;4.692;2023-02-28T05:41:51;5.50;;;3.00;;
78382;SDS011;67668;52.294;4.692;2023-02-28T05:44:17;7.43;;;2.83;;
78382;SDS011;67668;52.294;4.692;2023-02-28T05:46:42;5.90;;;2.33;;
78382;SDS011;67668;52.294;4.692;2023-02-28T05:49:07;8.68;;;3.22;;
78382;SDS011;67668;52.294;4.692;2023-02-28T05:51:33;5.38;;;2.78;;
78382;SDS011;67668;52.294;4.692;2023-02-28T05:54:01;4.53;;;2.58;;
78382;SDS011;67668;52.294;4.692;2023-02-28T05:56:27;9.07;;;3.83;;
78382;SDS011;67668;52.294;4.692;2023-02-28T05:58:52;6.65;;;3.60;;
78382;SDS011;67668;52.294;4.692;2023-02-28T06:01:34;6.90;;;3.47;;
78382;SDS011;67668;52.294;4.692;2023-02-28T06:04:02;5.30;;;2.80;;
78382;SDS011;67668;52.294;4.692;2023-02-28T06:06:28;8.27;;;3.72;;
78382;SDS011;67668;52.294;4.692;2023-02-28T06:08:59;7.13;;;3.22;;
78382;SDS011;67668;52.294;4.692;2023-02-28T06:11:25;6.65;;;3.25;;
78382;SDS011;67668;52.294;4.692;2023-02-28T06:13:58;7.43;;;3.50;;
78382;SDS011;67668;52.294;4.692;2023-02-28T06:16:26;7.03;;;3.70;;
78382;SDS011;67668;52.294;4.692;2023-02-28T06:18:52;4.95;;;3.60;;
78382;SDS011;67668;52.294;4.692;2023-02-28T06:21:21;8.52;;;3.75;;
78382;SDS011;67668;52.294;4.692;2023-02-28T06:23:47;9.00;;;3.58;;
78382;SDS011;67668;52.294;4.692;2023-02-28T06:26:13;7.47;;;4.00;;
78382;SDS011;67668;52.294;4.692;2023-02-28T06:28:38;8.38;;;4.05;;
78382;SDS011;67668;52.294;4.692;2023-02-28T06:31:08;6.45;;;4.10;;
78382;SDS011;67668;52.294;4.692;2023-02-28T06:33:35;6.25;;;4.22;;
78382;SDS011;67668;52.294;4.692;2023-02-28T06:36:02;6.07;;;3.90;;
78382;SDS011;67668;52.294;4.692;2023-02-28T06:38:28;8.77;;;4.22;;
78382;SDS011;67668;52.294;4.692;2023-02-28T06:40:54;9.00;;;4.82;;
78382;SDS011;67668;52.294;4.692;2023-02-28T06:43:21;8.85;;;5.68;;
78382;SDS011;67668;52.294;4.692;2023-02-28T06:45:47;7.95;;;4.60;;
78382;SDS011;67668;52.294;4.692;2023-02-28T06:48:12;6.85;;;4.22;;
78382;SDS011;67668;52.294;4.692;2023-02-28T06:50:38;6.87;;;4.17;;
78382;SDS011;67668;52.294;4.692;2023-02-28T06:53:03;10.40;;;4.95;;
78382;SDS011;67668;52.294;4.692;2023-02-28T06:55:28;9.33;;;5.37;;
78382;SDS011;67668;52.294;4.692;2023-02-28T06:57:54;7.07;;;4.20;;
78382;SDS011;67668;52.294;4.692;2023-02-28T07:00:22;10.52;;;5.18;;
78382;SDS011;67668;52.294;4.692;2023-02-28T07:02:48;10.30;;;5.57;;
78382;SDS011;67668;52.294;4.692;2023-02-28T07:05:13;8.83;;;4.70;;
78382;SDS011;67668;52.294;4.692;2023-02-28T07:07:39;8.35;;;4.72;;
78382;SDS011;67668;52.294;4.692;2023-02-28T07:10:09;7.68;;;4.72;;
78382;SDS011;67668;52.294;4.692;2023-02-28T07:12:39;9.25;;;5.30;;
78382;SDS011;67668;52.294;4.692;2023-02-28T07:15:05;6.32;;;4.28;;
78382;SDS011;67668;52.294;4.692;2023-02-28T07:17:31;8.07;;;4.63;;
78382;SDS011;67668;52.294;4.692;2023-02-28T07:19:56;9.37;;;4.73;;
78382;SDS011;67668;52.294;4.692;2023-02-28T07:22:21;6.47;;;3.97;;
78382;SDS011;67668;52.294;4.692;2023-02-28T07:24:47;5.13;;;3.92;;
78382;SDS011;67668;52.294;4.692;2023-02-28T07:27:12;9.43;;;4.00;;
78382;SDS011;67668;52.294;4.692;2023-02-28T07:29:49;6.70;;;3.17;;
78382;SDS011;67668;52.294;4.692;2023-02-28T07:32:15;5.97;;;3.28;;
78382;SDS011;67668;52.294;4.692;2023-02-28T07:34:41;4.90;;;3.35;;
78382;SDS011;67668;52.294;4.692;2023-02-28T07:37:06;5.15;;;3.08;;
78382;SDS011;67668;52.294;4.692;2023-02-28T07:39:31;3.70;;;2.35;;
78382;SDS011;67668;52.294;4.692;2023-02-28T07:41:57;3.08;;;2.45;;
78382;SDS011;67668;52.294;4.692;2023-02-28T07:44:22;3.47;;;2.97;;
78382;SDS011;67668;52.294;4.692;2023-02-28T07:46:48;4.50;;;3.03;;
78382;SDS011;67668;52.294;4.692;2023-02-28T07:49:13;7.70;;;3.10;;
78382;SDS011;67668;52.294;4.692;2023-02-28T07:51:38;5.85;;;2.88;;
78382;SDS011;67668;52.294;4.692;2023-02-28T07:54:04;5.90;;;2.50;;
78382;SDS011;67668;52.294;4.692;2023-02-28T07:56:30;4.32;;;3.00;;
78382;SDS011;67668;52.294;4.692;2023-02-28T07:58:55;4.47;;;2.50;;
78382;SDS011;67668;52.294;4.692;2023-02-28T08:01:21;6.05;;;2.95;;
78382;SDS011;67668;52.294;4.692;2023-02-28T08:03:46;7.55;;;2.97;;
78382;SDS011;67668;52.294;4.692;2023-02-28T08:06:16;5.60;;;2.40;;
78382;SDS011;67668;52.294;4.692;2023-02-28T08:08:43;4.07;;;3.00;;
78382;SDS011;67668;52.294;4.692;2023-02-28T08:11:09;5.90;;;2.85;;
78382;SDS011;67668;52.294;4.692;2023-02-28T08:13:34;4.38;;;2.88;;
78382;SDS011;67668;52.294;4.692;2023-02-28T08:16:01;5.47;;;3.15;;
78382;SDS011;67668;52.294;4.692;2023-02-28T08:18:26;4.93;;;3.45;;
78382;SDS011;67668;52.294;4.692;2023-02-28T08:20:52;5.40;;;3.10;;
78382;SDS011;67668;52.294;4.692;2023-02-28T08:23:17;5.78;;;3.13;;
78382;SDS011;67668;52.294;4.692;2023-02-28T08:25:44;8.65;;;3.90;;
78382;SDS011;67668;52.294;4.692;2023-02-28T08:28:09;5.22;;;3.05;;
78382;SDS011;67668;52.294;4.692;2023-02-28T08:30:35;4.40;;;3.10;;
78382;SDS011;67668;52.294;4.692;2023-02-28T08:33:00;4.80;;;3.20;;
78382;SDS011;67668;52.294;4.692;2023-02-28T08:37:53;5.23;;;2.60;;
78382;SDS011;67668;52.294;4.692;2023-02-28T08:40:18;6.28;;;3.88;;
78382;SDS011;67668;52.294;4.692;2023-02-28T08:42:47;5.15;;;3.10;;
78382;SDS011;67668;52.294;4.692;2023-02-28T08:45:13;7.25;;;3.85;;
78382;SDS011;67668;52.294;4.692;2023-02-28T08:47:40;5.65;;;3.33;;
78382;SDS011;67668;52.294;4.692;2023-02-28T08:50:06;4.85;;;3.40;;
78382;SDS011;67668;52.294;4.692;2023-02-28T08:52:32;5.28;;;3.65;;
78382;SDS011;67668;52.294;4.692;2023-02-28T08:54:58;5.28;;;3.58;;
78382;SDS011;67668;52.294;4.692;2023-02-28T08:57:23;6.95;;;3.45;;
78382;SDS011;67668;52.294;4.692;2023-02-28T08:59:51;6.15;;;3.97;;
78382;SDS011;67668;52.294;4.692;2023-02-28T09:02:17;6.75;;;4.40;;
78382;SDS011;67668;52.294;4.692;2023-02-28T09:04:42;6.88;;;4.25;;
78382;SDS011;67668;52.294;4.692;2023-02-28T09:07:10;5.95;;;4.13;;
78382;SDS011;67668;52.294;4.692;2023-02-28T09:12:01;7.70;;;4.90;;
78382;SDS011;67668;52.294;4.692;2023-02-28T09:14:27;7.10;;;3.63;;
78382;SDS011;67668;52.294;4.692;2023-02-28T09:16:52;6.47;;;3.63;;
78382;SDS011;67668;52.294;4.692;2023-02-28T09:19:18;5.87;;;3.53;;
78382;SDS011;67668;52.294;4.692;2023-02-28T09:21:43;6.07;;;3.70;;
78382;SDS011;67668;52.294;4.692;2023-02-28T09:24:09;8.43;;;4.13;;
78382;SDS011;67668;52.294;4.692;2023-02-28T09:26:36;9.25;;;3.75;;
78382;SDS011;67668;52.294;4.692;2023-02-28T09:29:02;7.15;;;3.33;;
78382;SDS011;67668;52.294;4.692;2023-02-28T09:31:28;7.53;;;3.72;;
78382;SDS011;67668;52.294;4.692;2023-02-28T09:33:55;6.05;;;3.38;;
78382;SDS011;67668;52.294;4.692;2023-02-28T09:36:22;5.55;;;3.08;;
78382;SDS011;67668;52.294;4.692;2023-02-28T09:38:48;5.30;;;3.35;;
78382;SDS011;67668;52.294;4.692;2023-02-28T09:41:25;6.97;;;3.42;;
78382;SDS011;67668;52.294;4.692;2023-02-28T09:43:56;5.78;;;3.42;;
78382;SDS011;67668;52.294;4.692;2023-02-28T09:46:38;5.95;;;3.35;;
78382;SDS011;67668;52.294;4.692;2023-02-28T09:49:11;5.47;;;3.25;;
78382;SDS011;67668;52.294;4.692;2023-02-28T09:51:41;5.50;;;3.38;;
78382;SDS011;67668;52.294;4.692;2023-02-28T09:54:18;6.57;;;3.70;;
78382;SDS011;67668;52.294;4.692;2023-02-28T09:56:53;6.10;;;3.85;;
78382;SDS011;67668;52.294;4.692;2023-02-28T10:02:41;4.88;;;3.05;;
78382;SDS011;67668;52.294;4.692;2023-02-28T10:06:02;7.68;;;2.78;;
78382;SDS011;67668;52.294;4.692;2023-02-28T10:11:00;4.57;;;2.40;;
78382;SDS011;67668;52.294;4.692;2023-02-28T10:19:05;3.97;;;1.80;;
78382;SDS011;67668;52.294;4.692;2023-02-28T10:21:38;4.10;;;2.13;;
78382;SDS011;67668;52.294;4.692;2023-02-28T10:26:43;4.57;;;3.03;;
78382;SDS011;67668;52.294;4.692;2023-02-28T10:29:10;5.43;;;2.47;;
78382;SDS011;67668;52.294;4.692;2023-02-28T10:31:36;4.50;;;2.70;;
78382;SDS011;67668;52.294;4.692;2023-02-28T10:34:03;4.97;;;2.45;;
78382;SDS011;67668;52.294;4.692;2023-02-28T10:36:29;6.38;;;2.67;;
78382;SDS011;67668;52.294;4.692;2023-02-28T10:38:54;4.53;;;2.28;;
78382;SDS011;67668;52.294;4.692;2023-02-28T10:43:53;5.45;;;1.85;;
78382;SDS011;67668;52.294;4.692;2023-02-28T10:46:37;4.57;;;1.83;;
78382;SDS011;67668;52.294;4.692;2023-02-28T10:49:07;4.90;;;2.38;;
78382;SDS011;67668;52.294;4.692;2023-02-28T10:51:39;5.78;;;2.08;;
78382;SDS011;67668;52.294;4.692;2023-02-28T10:54:06;4.55;;;2.10;;
78382;SDS011;67668;52.294;4.692;2023-02-28T10:56:41;5.60;;;2.30;;
78382;SDS011;67668;52.294;4.692;2023-02-28T11:01:50;6.15;;;2.53;;
78382;SDS011;67668;52.294;4.692;2023-02-28T11:04:19;4.82;;;2.80;;
78382;SDS011;67668;52.294;4.692;2023-02-28T11:06:48;4.03;;;1.90;;
78382;SDS011;67668;52.294;4.692;2023-02-28T11:09:25;3.42;;;2.50;;
78382;SDS011;67668;52.294;4.692;2023-02-28T11:11:54;7.13;;;3.00;;
78382;SDS011;67668;52.294;4.692;2023-02-28T11:16:49;3.58;;;2.00;;
78382;SDS011;67668;52.294;4.692;2023-02-28T11:19:23;4.57;;;2.58;;
78382;SDS011;67668;52.294;4.692;2023-02-28T11:21:56;3.13;;;1.95;;
78382;SDS011;67668;52.294;4.692;2023-02-28T11:26:55;4.10;;;2.03;;
78382;SDS011;67668;52.294;4.692;2023-02-28T11:29:22;5.68;;;2.28;;
78382;SDS011;67668;52.294;4.692;2023-02-28T11:34:47;3.15;;;1.50;;
78382;SDS011;67668;52.294;4.692;2023-02-28T11:37:26;3.53;;;1.58;;
78382;SDS011;67668;52.294;4.692;2023-02-28T11:39:52;4.15;;;1.52;;
78382;SDS011;67668;52.294;4.692;2023-02-28T11:42:23;3.65;;;1.25;;
78382;SDS011;67668;52.294;4.692;2023-02-28T11:45:35;3.47;;;1.75;;
78382;SDS011;67668;52.294;4.692;2023-02-28T11:59:32;3.90;;;1.35;;
78382;SDS011;67668;52.294;4.692;2023-02-28T12:02:05;3.15;;;1.35;;
78382;SDS011;67668;52.294;4.692;2023-02-28T12:07:11;3.90;;;1.90;;
78382;SDS011;67668;52.294;4.692;2023-02-28T12:20:58;2.72;;;1.35;;
78382;SDS011;67668;52.294;4.692;2023-02-28T12:26:00;3.85;;;1.60;;
78382;SDS011;67668;52.294;4.692;2023-02-28T12:29:04;2.75;;;1.50;;
78382;SDS011;67668;52.294;4.692;2023-02-28T12:31:41;2.28;;;1.52;;
78382;SDS011;67668;52.294;4.692;2023-02-28T12:34:16;2.80;;;1.55;;
78382;SDS011;67668;52.294;4.692;2023-02-28T12:36:45;3.13;;;1.60;;
78382;SDS011;67668;52.294;4.692;2023-02-28T12:39:23;4.30;;;1.67;;
78382;SDS011;67668;52.294;4.692;2023-02-28T12:41:56;2.65;;;1.40;;
78382;SDS011;67668;52.294;4.692;2023-02-28T12:46:58;3.53;;;1.73;;
78382;SDS011;67668;52.294;4.692;2023-02-28T12:49:31;3.20;;;1.80;;
78382;SDS011;67668;52.294;4.692;2023-02-28T12:51:59;3.88;;;1.52;;
78382;SDS011;67668;52.294;4.692;2023-02-28T12:54:32;3.47;;;1.75;;
78382;SDS011;67668;52.294;4.692;2023-02-28T12:59:52;2.80;;;1.80;;
78382;SDS011;67668;52.294;4.692;2023-02-28T13:02:25;2.78;;;1.30;;
78382;SDS011;67668;52.294;4.692;2023-02-28T13:05:10;4.03;;;1.60;;
78382;SDS011;67668;52.294;4.692;2023-02-28T13:10:44;3.60;;;1.90;;
78382;SDS011;67668;52.294;4.692;2023-02-28T13:13:20;2.33;;;1.48;;
78382;SDS011;67668;52.294;4.692;2023-02-28T13:18:35;3.50;;;2.20;;
78382;SDS011;67668;52.294;4.692;2023-02-28T13:21:05;9.63;;;3.47;;
78382;SDS011;67668;52.294;4.692;2023-02-28T13:27:11;2.97;;;1.63;;
78382;SDS011;67668;52.294;4.692;2023-02-28T13:34:33;3.00;;;1.60;;
78382;SDS011;67668;52.294;4.692;2023-02-28T13:39:56;2.05;;;1.55;;
78382;SDS011;67668;52.294;4.692;2023-02-28T13:47:29;2.28;;;1.42;;
78382;SDS011;67668;52.294;4.692;2023-02-28T13:58:43;1.98;;;1.33;;
78382;SDS011;67668;52.294;4.692;2023-02-28T14:07:02;3.45;;;1.70;;
78382;SDS011;67668;52.294;4.692;2023-02-28T14:09:30;2.42;;;1.83;;
78382;SDS011;67668;52.294;4.692;2023-02-28T14:15:03;11.90;;;1.83;;
78382;SDS011;67668;52.294;4.692;2023-02-28T14:17:30;3.30;;;1.52;;
78382;SDS011;67668;52.294;4.692;2023-02-28T14:19:57;3.25;;;2.55;;
78382;SDS011;67668;52.294;4.692;2023-02-28T14:27:48;3.03;;;1.27;;
78382;SDS011;67668;52.294;4.692;2023-02-28T14:33:25;3.28;;;1.50;;
78382;SDS011;67668;52.294;4.692;2023-02-28T14:36:00;3.05;;;1.83;;
78382;SDS011;67668;52.294;4.692;2023-02-28T14:38:32;3.65;;;1.63;;
78382;SDS011;67668;52.294;4.692;2023-02-28T14:41:03;2.10;;;1.50;;
78382;SDS011;67668;52.294;4.692;2023-02-28T14:43:31;2.92;;;1.40;;
78382;SDS011;67668;52.294;4.692;2023-02-28T14:48:24;3.60;;;1.23;;
78382;SDS011;67668;52.294;4.692;2023-02-28T14:50:51;4.28;;;1.40;;
78382;SDS011;67668;52.294;4.692;2023-02-28T14:53:20;2.75;;;1.60;;
78382;SDS011;67668;52.294;4.692;2023-02-28T14:55:47;2.47;;;1.20;;
78382;SDS011;67668;52.294;4.692;2023-02-28T15:00:48;3.08;;;1.45;;
78382;SDS011;67668;52.294;4.692;2023-02-28T15:03:30;2.47;;;1.63;;
78382;SDS011;67668;52.294;4.692;2023-02-28T15:06:00;4.40;;;1.95;;
78382;SDS011;67668;52.294;4.692;2023-02-28T15:08:27;5.30;;;1.48;;
78382;SDS011;67668;52.294;4.692;2023-02-28T15:13:47;2.10;;;1.60;;
78382;SDS011;67668;52.294;4.692;2023-02-28T15:18:58;2.88;;;1.45;;
78382;SDS011;67668;52.294;4.692;2023-02-28T15:26:22;3.47;;;1.23;;
78382;SDS011;67668;52.294;4.692;2023-02-28T15:28:56;1.50;;;1.20;;
78382;SDS011;67668;52.294;4.692;2023-02-28T15:31:28;4.10;;;1.60;;
78382;SDS011;67668;52.294;4.692;2023-02-28T15:33:56;4.20;;;1.63;;
78382;SDS011;67668;52.294;4.692;2023-02-28T15:36:29;3.95;;;1.23;;
78382;SDS011;67668;52.294;4.692;2023-02-28T15:38:56;2.35;;;1.60;;
78382;SDS011;67668;52.294;4.692;2023-02-28T15:43:57;3.97;;;1.80;;
78382;SDS011;67668;52.294;4.692;2023-02-28T15:46:43;3.08;;;1.48;;
78382;SDS011;67668;52.294;4.692;2023-02-28T15:49:20;2.08;;;1.65;;
78382;SDS011;67668;52.294;4.692;2023-02-28T15:51:48;3.05;;;1.50;;
78382;SDS011;67668;52.294;4.692;2023-02-28T15:54:19;2.00;;;1.30;;
78382;SDS011;67668;52.294;4.692;2023-02-28T15:56:52;2.95;;;1.70;;
78382;SDS011;67668;52.294;4.692;2023-02-28T15:59:24;4.32;;;1.73;;
78382;SDS011;67668;52.294;4.692;2023-02-28T16:02:14;3.90;;;1.98;;
78382;SDS011;67668;52.294;4.692;2023-02-28T16:04:59;3.03;;;1.63;;
78382;SDS011;67668;52.294;4.692;2023-02-28T16:07:24;3.90;;;1.70;;
78382;SDS011;67668;52.294;4.692;2023-02-28T16:12:15;2.75;;;1.77;;
78382;SDS011;67668;52.294;4.692;2023-02-28T16:17:09;3.17;;;1.40;;
78382;SDS011;67668;52.294;4.692;2023-02-28T16:19:44;6.75;;;1.65;;
78382;SDS011;67668;52.294;4.692;2023-02-28T16:24:35;2.00;;;1.40;;
78382;SDS011;67668;52.294;4.692;2023-02-28T16:31:55;2.60;;;1.48;;
78382;SDS011;67668;52.294;4.692;2023-02-28T16:34:22;3.05;;;1.95;;
78382;SDS011;67668;52.294;4.692;2023-02-28T16:39:13;3.40;;;1.63;;
78382;SDS011;67668;52.294;4.692;2023-02-28T16:44:08;2.65;;;2.42;;
78382;SDS011;67668;52.294;4.692;2023-02-28T16:46:37;3.03;;;1.35;;
78382;SDS011;67668;52.294;4.692;2023-02-28T16:51:28;2.53;;;1.60;;
78382;SDS011;67668;52.294;4.692;2023-02-28T16:53:53;4.17;;;1.90;;
78382;SDS011;67668;52.294;4.692;2023-02-28T16:56:20;3.72;;;2.17;;
78382;SDS011;67668;52.294;4.692;2023-02-28T16:58:48;3.35;;;1.88;;
78382;SDS011;67668;52.294;4.692;2023-02-28T17:01:14;3.55;;;2.17;;
78382;SDS011;67668;52.294;4.692;2023-02-28T17:06:17;3.83;;;1.88;;
78382;SDS011;67668;52.294;4.692;2023-02-28T17:08:46;3.47;;;2.47;;
78382;SDS011;67668;52.294;4.692;2023-02-28T17:11:13;3.40;;;2.10;;
78382;SDS011;67668;52.294;4.692;2023-02-28T17:16:04;4.77;;;1.87;;
78382;SDS011;67668;52.294;4.692;2023-02-28T17:20:59;3.65;;;1.65;;
78382;SDS011;67668;52.294;4.692;2023-02-28T17:23:25;4.20;;;1.98;;
78382;SDS011;67668;52.294;4.692;2023-02-28T17:28:19;4.28;;;2.20;;
78382;SDS011;67668;52.294;4.692;2023-02-28T17:30:46;3.25;;;1.98;;
78382;SDS011;67668;52.294;4.692;2023-02-28T17:33:12;4.97;;;2.10;;
78382;SDS011;67668;52.294;4.692;2023-02-28T17:35:38;3.42;;;2.00;;
78382;SDS011;67668;52.294;4.692;2023-02-28T17:40:28;2.97;;;2.13;;
78382;SDS011;67668;52.294;4.692;2023-02-28T17:45:21;3.00;;;1.77;;
78382;SDS011;67668;52.294;4.692;2023-02-28T17:47:48;4.60;;;2.65;;
78382;SDS011;67668;52.294;4.692;2023-02-28T17:50:16;2.53;;;1.92;;
78382;SDS011;67668;52.294;4.692;2023-02-28T17:52:43;5.38;;;2.70;;
78382;SDS011;67668;52.294;4.692;2023-02-28T17:55:09;2.87;;;2.40;;
78382;SDS011;67668;52.294;4.692;2023-02-28T18:00:00;4.07;;;2.57;;
78382;SDS011;67668;52.294;4.692;2023-02-28T18:02:30;3.63;;;2.67;;
78382;SDS011;67668;52.294;4.692;2023-02-28T18:04:55;5.50;;;3.15;;
78382;SDS011;67668;52.294;4.692;2023-02-28T18:07:22;5.68;;;3.00;;
78382;SDS011;67668;52.294;4.692;2023-02-28T18:09:49;9.05;;;3.83;;
78382;SDS011;67668;52.294;4.692;2023-02-28T18:14:39;4.67;;;3.83;;
78382;SDS011;67668;52.294;4.692;2023-02-28T18:19:30;34.33;;;17.37;;
78382;SDS011;67668;52.294;4.692;2023-02-28T18:24:21;37.93;;;21.83;;
78382;SDS011;67668;52.294;4.692;2023-02-28T18:29:22;17.07;;;11.37;;
78382;SDS011;67668;52.294;4.692;2023-02-28T18:31:49;58.83;;;29.17;;
78382;SDS011;67668;52.294;4.692;2023-02-28T18:34:14;40.03;;;24.55;;
78382;SDS011;67668;52.294;4.692;2023-02-28T18:39:07;18.83;;;10.85;;
78382;SDS011;67668;52.294;4.692;2023-02-28T18:41:33;18.35;;;9.85;;
78382;SDS011;67668;52.294;4.692;2023-02-28T18:46:26;35.70;;;19.88;;
78382;SDS011;67668;52.294;4.692;2023-02-28T18:48:51;38.00;;;19.07;;
78382;SDS011;67668;52.294;4.692;2023-02-28T18:51:18;25.85;;;14.63;;